Flag for Australia

Past Weather in 16°55'32.0"S, 145°46'31.0"E, Australia — Yesterday and Last 2 Weeks

Currently: 82 °F. Passing clouds. (Weather station: Cairns Airport, Australia). See more current weather

Past Weather in 16°55'32.0"S, 145°46'31.0"E — Graph

°F

16°55'32.0"S, 145°46'31.0"E Temperature Yesterday

Maximum temperature yesterday: 90 °F (at 1:30 pm)
Minimum temperature yesterday: 79 °F (at 4:00 am)
Average temperature yesterday: 83 °F

High & Low Weather Summary for the Past Weeks

 TemperatureHumidityPressure
High91 °F (Feb 16, 12:00 pm)100% (Feb 17, 5:12 pm)29.92 "Hg (Feb 17, 5:12 pm)
Low75 °F (Feb 22, 4:00 am)55% (Feb 20, 11:30 am)29.65 "Hg (Feb 24, 3:30 pm)
Average81 °F84%29.80 "Hg
* Reported Feb 12 9:00 pm — Feb 27 9:30 pm, 16°55'32.0"S, 145°46'31.0"E. Weather by CustomWeather, © 2024

Note: Actual official high and low records may vary slightly from our data, if they occured in-between our weather recording intervals... More about our weather records

16°55'32.0"S, 145°46'31.0"E Weather History for the Previous 24 Hours

Scroll right to see more
 ConditionsComfort  
Time TempWeatherWind HumidityBarometerVisibility
9:30 pm
Tue, Feb 27
82 °FPassing clouds.8 mph89%29.83 "HgN/A
9:00 pm82 °FPartly cloudy.9 mph89%29.83 "HgN/A
8:30 pm82 °FOvercast.8 mph84%29.83 "HgN/A
8:00 pm82 °FPassing clouds.9 mph84%29.83 "HgN/A
7:30 pm82 °FClear.8 mph84%29.80 "HgN/A
7:00 pm84 °FPassing clouds.8 mph84%29.80 "HgN/A
6:30 pm86 °FPartly sunny.10 mph75%29.80 "HgN/A
6:00 pm86 °FPartly sunny.9 mph79%29.77 "HgN/A
5:30 pm88 °FScattered clouds.8 mph75%29.77 "HgN/A
5:00 pm88 °FScattered clouds.8 mph70%29.77 "HgN/A
4:30 pm90 °FScattered clouds.7 mph71%29.74 "HgN/A
4:00 pm88 °FScattered clouds.8 mph75%29.74 "HgN/A
3:30 pm90 °FSunny.12 mph71%29.74 "HgN/A
3:00 pm91 °FBroken clouds.9 mph67%29.74 "HgN/A
2:30 pm90 °FScattered clouds.7 mph67%29.74 "HgN/A
2:00 pm90 °FSunny.8 mph71%29.77 "HgN/A
1:30 pm88 °FSunny.8 mph70%29.77 "HgN/A
1:00 pm88 °FSunny.7 mph75%29.80 "HgN/A
12:30 pm88 °FScattered clouds.7 mph75%29.80 "HgN/A
11:30 am90 °FPartly sunny.6 mph67%29.80 "HgN/A
11:00 am88 °FPartly sunny.8 mph75%29.80 "HgN/A
9:30 am88 °FSunny.10 mph70%29.83 "HgN/A
9:00 am86 °FSunny.12 mph79%29.80 "HgN/A
8:30 am86 °FSunny.8 mph79%29.80 "HgN/A
8:00 am84 °FSunny.8 mph84%29.80 "HgN/A
7:30 am82 °FSunny.9 mph89%29.80 "HgN/A
7:00 am79 °FScattered clouds.5 mph100%29.80 "HgN/A
6:30 am81 °FMostly cloudy.5 mph94%29.80 "HgN/A
6:00 am79 °FOvercast.5 mph100%29.77 "HgN/A
5:30 am79 °FPassing clouds.5 mph94%29.77 "HgN/A
5:00 am79 °FPartly cloudy.6 mph100%29.77 "HgN/A
4:30 am79 °FMostly cloudy.9 mph100%29.77 "HgN/A
4:00 am81 °FSprinkles. Mostly cloudy.7 mph94%29.74 "HgN/A
3:30 am79 °FSprinkles. Passing clouds.No wind100%29.74 "HgN/A
3:00 am79 °FPassing clouds.1 mph100%29.77 "HgN/A
2:30 am79 °FClear.No wind100%29.74 "HgN/A
2:00 am79 °FClear.No wind100%29.77 "HgN/A
1:30 am81 °FPassing clouds.3 mph94%29.77 "HgN/A
1:00 am81 °FPassing clouds.1 mph94%29.77 "HgN/A
12:30 am81 °FClear.1 mph94%29.80 "HgN/A
11:30 pm
Mon, Feb 26
81 °FPassing clouds.1 mph94%29.83 "HgN/A
11:00 pm81 °FOvercast.3 mph94%29.80 "HgN/A
Weather by CustomWeather, © 2024

See weather overview